Flood From: 18-02-2018 16:00 Until: 19-02-2018 16:00 warning for: Flood Level: Yellow info button

Although rather usual in this region, locally or potentially dangerous phenomena are expected. (such as local winds, summer thunderstorms, rising streams or high waves) Be aware and pay attention to the latest weather updates, especially if you carry out activities exposed to weather or close to a stream or shoreline. 


Meteo18 Weather Cam more information Meteo18 Weather Cam


Thunder radar more information blitzortung!


Rain radar more information rain snow radar


Visit our other weather sites:

Template documentation
and downloads

And another site



Weather Underground History page Text

Daily Summary for January 9, 2018 Units:  Metric    English   Both
« Previous Day
Next Day »
Daily Weekly Monthly Yearly Custom
  High: Low: Average:
Temperature: -17.8 °C -15.4 °C -14.6 °C
Dew Point: -17.8 °C -15.8 °C -14.9 °C
Humidity: Humidity % 90 % 95 %
Wind Speed: 0 km/h 0 km/h 5.6 km/h
Wind Gust: 0 km/h - -
Wind:- - SSW
Pressure: 0 hPa 34178.3 hPa -
Precipitation: 83.82 mm    
Historical Graphs
 
 
Tabular Data for January 9, 2018
Time Temperature Dew Point Pressure Wind Wind Speed Wind Gust Humidity Rainfall Rate (Hourly)
-17.8 °C -17.8 °C 0 hPa Calm     Humidity % 0 mm
00:04 -15.1 °C -15.6 °C 34246 hPa WNW 2.3 km/h 2.6 km/h 94 % 0 mm
00:16 -15.1 °C -15.5 °C 34246 hPa Calm   2.6 km/h 95 % 0 mm
00:24 -15.1 °C -15.5 °C 34256.2 hPa Calm     95 % 0 mm
00:26 -15.1 °C -15.6 °C 34256.2 hPa Calm     94 % 0 mm
00:34 -15.2 °C -15.6 °C 34256.2 hPa Calm     95 % 0 mm
00:38 -15.2 °C -15.6 °C 34269.7 hPa Calm     95 % 0 mm
00:46 -15.2 °C -15.6 °C 34256.2 hPa Calm   2.6 km/h 95 % 0 mm
00:50 -15.2 °C -15.6 °C 34256.2 hPa Calm     95 % 0 mm
00:52 -15.2 °C -15.6 °C 34256.2 hPa Calm     95 % 0 mm
00:58 -15.2 °C -15.6 °C 34256.2 hPa Calm     95 % 0 mm
01:09 -15.2 °C -15.6 °C 34246 hPa Calm     95 % 0 mm
01:10 -15.2 °C -15.6 °C 34246 hPa Calm     95 % 0 mm
01:16 -15.2 °C -15.6 °C 34235.8 hPa WNW 2.3 km/h 5.1 km/h 95 % 0 mm
01:20 -15.3 °C -15.7 °C 34235.8 hPa Calm   2.6 km/h 95 % 0 mm
01:22 -15.3 °C -15.7 °C 34235.8 hPa Calm     95 % 0 mm
01:30 -15.3 °C -15.7 °C 34222.3 hPa WNW 2.3 km/h 2.6 km/h 95 % 0 mm
01:34 -15.4 °C -15.8 °C 34222.3 hPa Calm   2.6 km/h 95 % 0 mm
01:36 -15.4 °C -15.8 °C 34222.3 hPa Calm   2.6 km/h 95 % 0 mm
01:40 -15.4 °C -15.7 °C 34235.8 hPa Calm   2.6 km/h 96 % 0 mm
01:44 -15.3 °C -15.7 °C 34235.8 hPa Calm   2.6 km/h 96 % 0 mm
01:46 -15.3 °C -15.6 °C 34235.8 hPa Calm   2.6 km/h 96 % 0 mm
01:50 -15.3 °C -15.6 °C 34246 hPa ENE 7.6 km/h 7.7 km/h 96 % 0 mm
01:52 -15.3 °C -15.6 °C 34256.2 hPa ENE 10.3 km/h 10.3 km/h 96 % 0 mm
01:54 -15.2 °C -15.6 °C 34256.2 hPa ENE 10.3 km/h 12.9 km/h 96 % 0 mm
02:00 -15.1 °C -15.4 °C 34256.2 hPa East 7.6 km/h 7.7 km/h 96 % 0 mm
02:02 -15.1 °C -15.4 °C 34256.2 hPa ESE 5.1 km/h 10.3 km/h 96 % 0 mm
02:04 -14.9 °C -15.3 °C 34256.2 hPa Calm   7.7 km/h 96 % 0 mm
02:08 -14.9 °C -15.2 °C 34256.2 hPa Calm   10.3 km/h 96 % 0 mm
02:10 -14.8 °C -15.2 °C 34256.2 hPa Calm   5.1 km/h 96 % 0 mm
02:18 -14.8 °C -15.2 °C 34256.2 hPa Calm   2.6 km/h 95 % 0 mm
02:24 -14.9 °C -15.3 °C 34256.2 hPa Calm   2.6 km/h 95 % 0 mm
02:26 -14.9 °C -15.3 °C 34256.2 hPa Calm   2.6 km/h 95 % 0 mm
02:27 -14.9 °C -15.3 °C 34256.2 hPa Calm   2.6 km/h 95 % 0 mm
02:28 -14.9 °C -15.3 °C 34256.2 hPa Calm     95 % 0 mm
02:32 -14.9 °C -15.3 °C 34256.2 hPa SW 5.1 km/h 7.7 km/h 95 % 0 mm
02:36 -14.8 °C -15.2 °C 34246 hPa SW 5.1 km/h 5.1 km/h 95 % 0 mm
02:44 -14.8 °C -15.2 °C 34246 hPa SW 5.1 km/h 10.3 km/h 95 % 0 mm
02:48 -14.8 °C -15.2 °C 34246 hPa SW 7.6 km/h 10.3 km/h 95 % 0 mm
02:51 -14.8 °C -15.2 °C 34246 hPa SW 10.3 km/h 10.3 km/h 95 % 0 mm
02:52 -14.7 °C -15.1 °C 34256.2 hPa SW 7.6 km/h 15.6 km/h 95 % 0 mm
02:58 -14.7 °C -15.2 °C 34256.2 hPa SW 12.7 km/h 18.2 km/h 94 % 0 mm
03:00 -14.7 °C -15.2 °C 34256.2 hPa SSW 7.6 km/h 18.2 km/h 94 % 0 mm
03:04 -14.7 °C -15.2 °C 34256.2 hPa SW 10.3 km/h 18.2 km/h 94 % 0 mm
03:10 -14.7 °C -15.2 °C 34256.2 hPa SSW 5.1 km/h 12.9 km/h 94 % 0 mm
03:14 -14.7 °C -15.2 °C 34256.2 hPa SW 5.1 km/h 10.3 km/h 94 % 0 mm
03:20 -14.7 °C -15.2 °C 34256.2 hPa SSW 2.3 km/h 10.3 km/h 94 % 0 mm
03:28 -14.7 °C -15.2 °C 34246 hPa Calm   5.1 km/h 94 % 0 mm
03:30 -14.8 °C -15.3 °C 34246 hPa SSW 2.3 km/h 2.6 km/h 94 % 0 mm
03:32 -14.8 °C -15.3 °C 34246 hPa SSW 2.3 km/h 5.1 km/h 94 % 0 mm
03:34 -14.8 °C -15.3 °C 34246 hPa SSW 2.3 km/h 5.1 km/h 94 % 0 mm
03:36 -14.8 °C -15.3 °C 34246 hPa Calm   5.1 km/h 94 % 0 mm
03:40 -14.8 °C -15.3 °C 34235.8 hPa SW 5.1 km/h 5.1 km/h 94 % 0 mm
03:42 -14.8 °C -15.2 °C 34235.8 hPa SW 2.3 km/h 5.1 km/h 95 % 0 mm
03:50 -14.8 °C -15.2 °C 34235.8 hPa SSW 2.3 km/h 7.7 km/h 95 % 0 mm
03:56 -14.8 °C -15.2 °C 34222.3 hPa SW 5.1 km/h 10.3 km/h 95 % 0 mm
03:57 -14.8 °C -15.2 °C 34222.3 hPa SSW 7.6 km/h 7.7 km/h 95 % 0 mm
04:04 -14.8 °C -15.2 °C 34222.3 hPa SSW 5.1 km/h 7.7 km/h 95 % 0 mm
04:06 -14.8 °C -15.2 °C 34222.3 hPa SSW 2.3 km/h 5.1 km/h 95 % 0 mm
04:08 -14.8 °C -15.2 °C 34222.3 hPa SSW 2.3 km/h 5.1 km/h 95 % 0 mm
04:10 -14.8 °C -15.2 °C 34222.3 hPa SSW 2.3 km/h 7.7 km/h 95 % 0 mm
04:16 -14.9 °C -15.3 °C 34222.3 hPa SW 2.3 km/h 2.6 km/h 95 % 0 mm
04:20 -14.9 °C -15.3 °C 34222.3 hPa SW 2.3 km/h 5.1 km/h 95 % 0 mm
04:22 -14.9 °C -15.2 °C 34212.1 hPa SSW 2.3 km/h 5.1 km/h 96 % 0 mm
04:24 -14.9 °C -15.2 °C 34222.3 hPa SSW 2.3 km/h 5.1 km/h 96 % 0 mm
04:26 -14.9 °C -15.3 °C 34212.1 hPa Calm   2.6 km/h 95 % 0 mm
04:30 -14.9 °C -15.3 °C 34212.1 hPa Calm     95 % 0 mm
04:32 -14.9 °C -15.3 °C 34212.1 hPa Calm     95 % 0 mm
04:33 -14.9 °C -15.3 °C 34222.3 hPa Calm   2.6 km/h 95 % 0 mm
04:34 -14.9 °C -15.3 °C 34212.1 hPa Calm   2.6 km/h 95 % 0 mm
04:36 -14.9 °C -15.2 °C 34212.1 hPa NW 2.3 km/h 2.6 km/h 96 % 0 mm
04:38 -14.9 °C -15.2 °C 34212.1 hPa NNW 5.1 km/h 5.1 km/h 96 % 0 mm
04:41 -14.9 °C -15.3 °C 34212.1 hPa Calm   2.6 km/h 95 % 0 mm
04:42 -14.9 °C -15.3 °C 34212.1 hPa North 2.3 km/h 2.6 km/h 95 % 0 mm
04:44 -14.9 °C -15.3 °C 34212.1 hPa North 2.3 km/h 2.6 km/h 95 % 0 mm
04:48 -14.9 °C -15.3 °C 34212.1 hPa NNE 2.3 km/h 2.6 km/h 95 % 0 mm
04:51 -15 °C -15.4 °C 34212.1 hPa ENE 2.3 km/h 5.1 km/h 95 % 0 mm
04:52 -15 °C -15.4 °C 34212.1 hPa ENE 2.3 km/h 7.7 km/h 95 % 0 mm
04:54 -15 °C -15.3 °C 34212.1 hPa Calm   5.1 km/h 96 % 0 mm
04:57 -14.9 °C -15.3 °C 34212.1 hPa Calm   2.6 km/h 96 % 0 mm
05:01 -14.9 °C -15.3 °C 34222.3 hPa East 2.3 km/h 2.6 km/h 96 % 0 mm
05:07 -14.9 °C -15.3 °C 34222.3 hPa East 2.3 km/h 2.6 km/h 96 % 0 mm
05:09 -14.9 °C -15.3 °C 34212.1 hPa Calm   2.6 km/h 96 % 0 mm
05:16 -14.9 °C -15.3 °C 34212.1 hPa Calm     96 % 0 mm
05:21 -14.9 °C -15.3 °C 34212.1 hPa Calm     96 % 0 mm
05:25 -14.9 °C -15.2 °C 34212.1 hPa Calm     96 % 0 mm
05:28 -14.9 °C -15.3 °C 34212.1 hPa Calm     96 % 0 mm
05:29 -14.9 °C -15.3 °C 34198.6 hPa Calm   5.1 km/h 96 % 0 mm
05:31 -14.9 °C -15.3 °C 34198.6 hPa Calm     96 % 7.62 mm
05:33 -15 °C -15.3 °C 34198.6 hPa Calm   2.6 km/h 96 % 7.62 mm
05:34 -14.9 °C -15.3 °C 34198.6 hPa Calm   5.1 km/h 96 % 0 mm
05:40 -15.1 °C -15.4 °C 34198.6 hPa Calm   2.6 km/h 96 % 7.62 mm
05:45 -14.9 °C -15.3 °C 34198.6 hPa Calm     96 % 7.62 mm
05:46 -15 °C -15.3 °C 34198.6 hPa Calm     96 % 7.62 mm
05:47 -14.9 °C -15.3 °C 34198.6 hPa Calm     96 % 7.62 mm
05:51 -14.9 °C -15.3 °C 34188.4 hPa Calm   2.6 km/h 96 % 7.62 mm
05:59 -15 °C -15.3 °C 34188.4 hPa WNW 2.3 km/h 5.1 km/h 96 % 7.62 mm
06:07 -15.1 °C -15.4 °C 34178.3 hPa Calm   2.6 km/h 96 % 7.62 mm
06:10 -15.1 °C -15.4 °C 34178.3 hPa WNW 2.3 km/h 2.6 km/h 96 % 7.62 mm
06:13 -14.9 °C -15.2 °C 34178.3 hPa Calm   2.6 km/h 97 % 7.62 mm
06:19 -14.9 °C -15.3 °C 34178.3 hPa Calm     96 % 7.62 mm
06:21 -14.9 °C -15.3 °C 34178.3 hPa Calm   2.6 km/h 96 % 7.62 mm
06:23 -15 °C -15.3 °C 34178.3 hPa Calm     96 % 7.62 mm
06:29 -15.1 °C -15.4 °C 34188.4 hPa Calm   5.1 km/h 96 % 7.62 mm
06:33 -15.2 °C -15.5 °C 34178.3 hPa Calm     96 % 0 mm
06:37 -15.2 °C -15.5 °C 34178.3 hPa Calm     96 % 0 mm
06:40 -15.2 °C -15.5 °C 34178.3 hPa Calm     96 % 0 mm
06:41 -15.2 °C -15.5 °C 34178.3 hPa Calm     96 % 0 mm
06:43 -15.2 °C -15.6 °C 34188.4 hPa Calm   2.6 km/h 96 % 0 mm
06:45 -15.3 °C -15.6 °C 34188.4 hPa Calm     96 % 0 mm
06:51 -15.3 °C -15.7 °C 34188.4 hPa Calm     96 % 0 mm
06:53 -15.3 °C -15.7 °C 34188.4 hPa East 2.3 km/h 2.6 km/h 96 % 0 mm
06:59 -15.3 °C -15.6 °C 34188.4 hPa Calm     97 % 0 mm
07:05 -15.3 °C -15.7 °C 34188.4 hPa WNW 2.3 km/h 2.6 km/h 96 % 0 mm
07:10 -15.4 °C -15.7 °C 34188.4 hPa WNW 2.3 km/h 2.6 km/h 96 % 0 mm
07:11 -15.4 °C -15.7 °C 34188.4 hPa Calm   2.6 km/h 96 % 0 mm
07:15 -15.4 °C -15.6 °C 34188.4 hPa Calm   2.6 km/h 97 % 0 mm
07:19 -15.4 °C -15.6 °C 34188.4 hPa Calm     97 % 0 mm
07:22 -15.4 °C -15.6 °C 34188.4 hPa Calm   2.6 km/h 97 % 0 mm
07:28 -15.3 °C -15.6 °C 34198.6 hPa Calm     97 % 0 mm
07:30 -15.3 °C -15.6 °C 34198.6 hPa Calm     97 % 0 mm
07:40 -15.3 °C -15.6 °C 34188.4 hPa Calm   2.6 km/h 97 % 0 mm
07:41 -15.4 °C -15.6 °C 34198.6 hPa Calm     97 % 0 mm
07:46 -15.2 °C -15.4 °C 34188.4 hPa West 2.3 km/h 7.7 km/h 97 % 0 mm
07:48 -15.1 °C -15.3 °C 34188.4 hPa WSW 5.1 km/h 10.3 km/h 97 % 0 mm
07:54 -14.9 °C -15.1 °C 34178.3 hPa SW 7.6 km/h 10.3 km/h 98 % 0 mm
08:05 -14.8 °C -14.9 °C 34178.3 hPa SSW 2.3 km/h 7.7 km/h 98 % 0 mm
08:08 -14.8 °C -15 °C 34188.4 hPa Calm   2.6 km/h 97 % 0 mm
08:10 -14.8 °C -15.1 °C 34188.4 hPa Calm   2.6 km/h 97 % 0 mm
08:12 -14.9 °C -15.1 °C 34188.4 hPa SSW 2.3 km/h 2.6 km/h 97 % 0 mm
08:14 -14.9 °C -15.1 °C 34188.4 hPa Calm   2.6 km/h 97 % 0 mm
08:16 -14.9 °C -15.1 °C 34188.4 hPa Calm   2.6 km/h 97 % 0 mm
08:20 -14.9 °C -15.2 °C 34178.3 hPa Calm   2.6 km/h 97 % 0 mm
08:28 -15.2 °C -15.5 °C 34188.4 hPa SW 2.3 km/h 2.6 km/h 96 % 0 mm
08:29 -15.1 °C -15.4 °C 34188.4 hPa SW 2.3 km/h 2.6 km/h 96 % 0 mm
08:32 -15.2 °C -15.4 °C 34188.4 hPa SSW 2.3 km/h 5.1 km/h 97 % 0 mm
08:40 -15.2 °C -15.4 °C 34188.4 hPa Calm   2.6 km/h 97 % 0 mm
08:42 -15.2 °C -15.4 °C 34188.4 hPa Calm   2.6 km/h 97 % 0 mm
08:44 -15.2 °C -15.4 °C 34198.6 hPa Calm   2.6 km/h 97 % 0 mm
08:46 -15.2 °C -15.4 °C 34198.6 hPa SSE 2.3 km/h 2.6 km/h 97 % 0 mm
08:50 -15.2 °C -15.4 °C 34198.6 hPa Calm   2.6 km/h 97 % 0 mm
08:52 -15.2 °C -15.4 °C 34198.6 hPa Calm   5.1 km/h 97 % 0 mm
08:54 -15.2 °C -15.4 °C 34198.6 hPa SSE 2.3 km/h 5.1 km/h 97 % 0 mm
08:58 -15.1 °C -15.3 °C 34198.6 hPa SSW 2.3 km/h 5.1 km/h 97 % 0 mm
09:00 -15.1 °C -15.3 °C 34198.6 hPa SSE 2.3 km/h 5.1 km/h 97 % 0 mm
09:02 -15.1 °C -15.3 °C 34212.1 hPa Calm   2.6 km/h 97 % 0 mm
09:04 -15.1 °C -15.3 °C 34212.1 hPa Calm   2.6 km/h 97 % 0 mm
09:06 -15.1 °C -15.3 °C 34212.1 hPa SE 2.3 km/h 2.6 km/h 97 % 0 mm
09:08 -15.1 °C -15.3 °C 34212.1 hPa Calm   2.6 km/h 97 % 0 mm
09:10 -15.1 °C -15.3 °C 34212.1 hPa Calm   2.6 km/h 97 % 0 mm
09:12 -15.1 °C -15.3 °C 34212.1 hPa Calm   2.6 km/h 97 % 0 mm
09:18 -15 °C -15.2 °C 34212.1 hPa Calm   2.6 km/h 97 % 0 mm
09:22 -14.9 °C -15.2 °C 34212.1 hPa Calm     97 % 0 mm
09:24 -14.9 °C -15.2 °C 34212.1 hPa Calm     97 % 0 mm
09:26 -14.9 °C -15.2 °C 34212.1 hPa SSW 2.3 km/h 2.6 km/h 97 % 0 mm
09:28 -14.9 °C -15.1 °C 34212.1 hPa SW 5.1 km/h 5.1 km/h 97 % 0 mm
09:30 -14.9 °C -15.1 °C 34212.1 hPa SSW 5.1 km/h 5.1 km/h 97 % 0 mm
09:40 -14.8 °C -15.1 °C 34222.3 hPa SW 5.1 km/h 10.3 km/h 97 % 0 mm
09:42 -14.8 °C -15 °C 34212.1 hPa SSW 7.6 km/h 12.9 km/h 97 % 0 mm
09:44 -14.8 °C -15 °C 34222.3 hPa SW 7.6 km/h 15.6 km/h 97 % 0 mm
09:46 -14.8 °C -15 °C 34222.3 hPa SSW 7.6 km/h 12.9 km/h 97 % 0 mm
09:48 -14.7 °C -14.9 °C 34222.3 hPa SSW 7.6 km/h 18.2 km/h 98 % 0 mm
09:50 -14.7 °C -14.8 °C 34222.3 hPa SW 12.7 km/h 12.9 km/h 98 % 0 mm
09:54 -14.6 °C -14.8 °C 34222.3 hPa SW 15.6 km/h 20.8 km/h 98 % 0 mm
09:58 -14.6 °C -14.7 °C 34222.3 hPa SSW 5.1 km/h 18.2 km/h 98 % 0 mm
10:00 -14.6 °C -14.7 °C 34222.3 hPa SW 12.7 km/h 20.8 km/h 98 % 0 mm
10:04 -14.6 °C -14.7 °C 34222.3 hPa SW 10.3 km/h 12.9 km/h 98 % 0 mm
10:08 -14.6 °C -14.8 °C 34222.3 hPa SSW 12.7 km/h 15.6 km/h 97 % 0 mm
10:10 -14.6 °C -14.8 °C 34222.3 hPa SSW 5.1 km/h 15.6 km/h 97 % 0 mm
10:11 -14.6 °C -14.7 °C 34222.3 hPa WSW 17.9 km/h 18.2 km/h 98 % 0 mm
10:16 -14.6 °C -14.8 °C 34222.3 hPa SW 7.6 km/h 18.2 km/h 97 % 0 mm
10:17 -14.6 °C -14.8 °C 34235.8 hPa SSW 7.6 km/h 12.9 km/h 97 % 0 mm
10:18 -14.6 °C -14.8 °C 34222.3 hPa SSW 5.1 km/h 15.6 km/h 97 % 0 mm
10:20 -14.6 °C -14.8 °C 34222.3 hPa SSW 7.6 km/h 15.6 km/h 97 % 0 mm
10:22 -14.6 °C -14.8 °C 34222.3 hPa South 7.6 km/h 10.3 km/h 97 % 0 mm
10:26 -14.6 °C -14.8 °C 34235.8 hPa SW 12.7 km/h 15.6 km/h 97 % 0 mm
10:28 -14.6 °C -14.8 °C 34235.8 hPa SW 7.6 km/h 15.6 km/h 97 % 0 mm
10:29 -14.6 °C -14.8 °C 34235.8 hPa SSW 5.1 km/h 12.9 km/h 97 % 0 mm
10:30 -14.6 °C -14.8 °C 34235.8 hPa SW 12.7 km/h 15.6 km/h 97 % 0 mm
10:36 -14.6 °C -14.8 °C 34235.8 hPa SSW 12.7 km/h 15.6 km/h 97 % 0 mm
10:42 -14.6 °C -14.8 °C 34235.8 hPa SW 10.3 km/h 12.9 km/h 97 % 0 mm
10:44 -14.6 °C -14.8 °C 34235.8 hPa South 5.1 km/h 15.6 km/h 97 % 0 mm
10:48 -14.6 °C -14.8 °C 34235.8 hPa SSW 10.3 km/h 18.2 km/h 97 % 0 mm
10:50 -14.6 °C -14.8 °C 34235.8 hPa SW 7.6 km/h 15.6 km/h 97 % 0 mm
10:54 -14.6 °C -14.8 °C 34235.8 hPa SSW 7.6 km/h 15.6 km/h 97 % 0 mm
10:56 -14.6 °C -14.8 °C 34246 hPa SSW 7.6 km/h 12.9 km/h 97 % 0 mm
11:00 -14.6 °C -14.8 °C 34246 hPa SSW 10.3 km/h 15.6 km/h 97 % 0 mm
11:06 -14.6 °C -14.8 °C 34246 hPa SSW 10.3 km/h 15.6 km/h 97 % 0 mm
11:08 -14.5 °C -14.7 °C 34246 hPa South 5.1 km/h 10.3 km/h 97 % 0 mm
11:14 -14.4 °C -14.7 °C 34246 hPa SSW 7.6 km/h 15.6 km/h 97 % 0 mm
11:20 -14.4 °C -14.6 °C 34246 hPa SSW 10.3 km/h 12.9 km/h 98 % 0 mm
11:22 -14.4 °C -14.6 °C 34246 hPa SSW 5.1 km/h 12.9 km/h 98 % 0 mm
11:26 -14.4 °C -14.6 °C 34246 hPa SSW 10.3 km/h 12.9 km/h 97 % 0 mm
11:28 -14.4 °C -14.6 °C 34246 hPa SSW 5.1 km/h 10.3 km/h 97 % 0 mm
11:34 -14.3 °C -14.5 °C 34246 hPa South 5.1 km/h 10.3 km/h 98 % 0 mm
11:36 -14.3 °C -14.5 °C 34246 hPa SSW 7.6 km/h 12.9 km/h 98 % 0 mm
11:38 -14.3 °C -14.5 °C 34246 hPa SSW 5.1 km/h 12.9 km/h 98 % 0 mm
11:42 -14.3 °C -14.4 °C 34246 hPa SSW 7.6 km/h 15.6 km/h 98 % 0 mm
11:44 -14.3 °C -14.4 °C 34246 hPa SSW 5.1 km/h 12.9 km/h 98 % 0 mm
11:46 -14.3 °C -14.4 °C 34246 hPa Calm   7.7 km/h 98 % 0 mm
11:48 -14.3 °C -14.4 °C 34246 hPa Calm   2.6 km/h 98 % 0 mm
11:50 -14.2 °C -14.4 °C 34246 hPa SSE 2.3 km/h 5.1 km/h 98 % 0 mm
11:52 -14.2 °C -14.4 °C 34246 hPa SSE 2.3 km/h 10.3 km/h 98 % 0 mm
11:54 -14.2 °C -14.4 °C 34256.2 hPa Calm   2.6 km/h 98 % 0 mm
11:56 -14.2 °C -14.4 °C 34246 hPa SE 2.3 km/h 10.3 km/h 98 % 0 mm
12:00 -14.2 °C -14.4 °C 34246 hPa SSE 2.3 km/h 10.3 km/h 98 % 0 mm
12:02 -14.2 °C -14.3 °C 34246 hPa South 5.1 km/h 7.7 km/h 98 % 0 mm
12:04 -14.2 °C -14.3 °C 34246 hPa South 5.1 km/h 7.7 km/h 98 % 0 mm
12:06 -14.2 °C -14.3 °C 34246 hPa SSW 7.6 km/h 12.9 km/h 98 % 0 mm
12:08 -14.1 °C -14.3 °C 34246 hPa SW 12.7 km/h 12.9 km/h 98 % 7.62 mm
12:12 -14.1 °C -14.3 °C 34256.2 hPa SSW 12.7 km/h 18.2 km/h 98 % 7.62 mm
12:16 -14.1 °C -14.3 °C 34256.2 hPa SSW 15.6 km/h 18.2 km/h 98 % 7.62 mm
12:18 -14.1 °C -14.3 °C 34256.2 hPa SW 12.7 km/h 18.2 km/h 98 % 7.62 mm
12:24 -14.1 °C -14.2 °C 34256.2 hPa SW 17.9 km/h 20.8 km/h 98 % 12.7 mm
12:26 -14.1 °C -14.2 °C 34256.2 hPa SSW 10.3 km/h 20.8 km/h 98 % 12.7 mm
12:30 -14.1 °C -14.2 °C 34246 hPa SSW 10.3 km/h 15.6 km/h 98 % 12.7 mm
12:32 -14.1 °C -14.2 °C 34246 hPa SW 10.3 km/h 18.2 km/h 98 % 12.7 mm
12:36 -14 °C -14.2 °C 34235.8 hPa SSW 12.7 km/h 12.9 km/h 98 % 12.7 mm
12:38 -14 °C -14.2 °C 34235.8 hPa SW 15.6 km/h 15.6 km/h 98 % 12.7 mm
12:44 -13.9 °C -14.1 °C 34235.8 hPa SSW 15.6 km/h 18.2 km/h 98 % 12.7 mm
12:48 -13.9 °C -14.2 °C 34235.8 hPa South 10.3 km/h 18.2 km/h 97 % 12.7 mm
12:50 -13.9 °C -14.1 °C 34235.8 hPa South 10.3 km/h 12.9 km/h 98 % 12.7 mm
12:52 -13.8 °C -14 °C 34235.8 hPa SSW 12.7 km/h 15.6 km/h 98 % 12.7 mm
12:58 -13.8 °C -14 °C 34222.3 hPa SSW 10.3 km/h 18.2 km/h 98 % 12.7 mm
13:00 -13.8 °C -13.9 °C 34222.3 hPa SSW 10.3 km/h 15.6 km/h 98 % 12.7 mm
13:04 -13.8 °C -14.1 °C 34222.3 hPa SSW 12.7 km/h 20.8 km/h 97 % 12.7 mm
13:06 -13.8 °C -14.1 °C 34222.3 hPa SSW 10.3 km/h 15.6 km/h 97 % 12.7 mm
13:08 -13.8 °C -14.1 °C 34222.3 hPa SSW 2.3 km/h 15.6 km/h 97 % 7.62 mm
13:10 -13.8 °C -14 °C 34222.3 hPa SW 12.7 km/h 15.6 km/h 97 % 7.62 mm
13:12 -13.8 °C -14 °C 34222.3 hPa SSW 12.7 km/h 12.9 km/h 97 % 7.62 mm
13:16 -13.8 °C -14 °C 34222.3 hPa SW 12.7 km/h 18.2 km/h 97 % 7.62 mm
13:18 -13.8 °C -14 °C 34222.3 hPa SW 15.6 km/h 20.8 km/h 97 % 7.62 mm
13:20 -13.7 °C -13.9 °C 34222.3 hPa SSW 10.3 km/h 18.2 km/h 97 % 7.62 mm
13:24 -13.7 °C -13.9 °C 34222.3 hPa SSW 15.6 km/h 20.8 km/h 97 % 0 mm
13:26 -13.7 °C -13.9 °C 34212.1 hPa SSW 7.6 km/h 18.2 km/h 97 % 0 mm
13:28 -13.7 °C -13.9 °C 34212.1 hPa South 5.1 km/h 18.2 km/h 97 % 0 mm
13:34 -13.6 °C -13.8 °C 34212.1 hPa South 17.9 km/h 25.9 km/h 97 % 7.62 mm
13:36 -13.6 °C -13.8 °C 34212.1 hPa SSW 12.7 km/h 23.3 km/h 97 % 7.62 mm
13:40 -13.6 °C -13.9 °C 34212.1 hPa SSW 15.6 km/h 28.5 km/h 96 % 7.62 mm
13:42 -13.6 °C -13.8 °C 34212.1 hPa SSW 17.9 km/h 20.8 km/h 97 % 7.62 mm
13:48 -13.5 °C -13.8 °C 34212.1 hPa SSW 17.9 km/h 20.8 km/h 96 % 7.62 mm
13:54 -13.4 °C -13.9 °C 34212.1 hPa SW 20.9 km/h 28.5 km/h 95 % 7.62 mm
13:56 -13.4 °C -13.8 °C 34212.1 hPa South 26.2 km/h 28.5 km/h 96 % 7.62 mm
14:00 -13.4 °C -13.9 °C 34212.1 hPa SSW 17.9 km/h 38.8 km/h 94 % 7.62 mm
14:02 -13.4 °C -13.9 °C 34212.1 hPa SSW 17.9 km/h 31.1 km/h 94 % 7.62 mm
14:04 -13.4 °C -13.9 °C 34212.1 hPa SSW 23 km/h 28.5 km/h 94 % 7.62 mm
14:06 -13.5 °C -14.1 °C 34212.1 hPa SSW 17.9 km/h 38.8 km/h 93 % 7.62 mm
14:10 -13.5 °C -14.2 °C 34198.6 hPa SW 20.9 km/h 33.6 km/h 92 % 7.62 mm
14:14 -13.5 °C -14.2 °C 34212.1 hPa SW 10.3 km/h 28.5 km/h 92 % 7.62 mm
14:18 -13.5 °C -14.3 °C 34212.1 hPa SW 15.6 km/h 36.2 km/h 91 % 7.62 mm
14:22 -13.5 °C -14.3 °C 34198.6 hPa SSW 23 km/h 31.1 km/h 91 % 7.62 mm
14:24 -13.6 °C -14.3 °C 34198.6 hPa SW 23 km/h 33.6 km/h 91 % 7.62 mm
14:26 -13.6 °C -14.4 °C 34198.6 hPa SW 31.4 km/h 41.4 km/h 90 % 7.62 mm
14:28 -13.6 °C -14.4 °C 34198.6 hPa SW 31.4 km/h 41.4 km/h 90 % 7.62 mm
14:37 -13.7 °C -14.4 °C 34198.6 hPa South 17.9 km/h 33.6 km/h 91 % 0 mm
14:40 -13.7 °C -14.5 °C 34198.6 hPa SW 15.6 km/h 28.5 km/h 91 % 0 mm
14:44 -13.8 °C -14.6 °C 34198.6 hPa SSW 28.5 km/h 31.1 km/h 90 % 0 mm
14:49 -13.8 °C -14.6 °C 34198.6 hPa SSW 12.7 km/h 31.1 km/h 91 % 0 mm
14:52 -13.8 °C -14.6 °C 34198.6 hPa SSW 20.9 km/h 31.1 km/h 91 % 0 mm
14:54 -13.8 °C -14.6 °C 34198.6 hPa SW 15.6 km/h 28.5 km/h 91 % 0 mm
14:56 -13.8 °C -14.6 °C 34198.6 hPa South 12.7 km/h 28.5 km/h 91 % 0 mm
14:58 -13.8 °C -14.6 °C 34198.6 hPa SW 15.6 km/h 28.5 km/h 91 % 0 mm
15:00 -13.8 °C -14.6 °C 34198.6 hPa SSE 10.3 km/h 23.3 km/h 91 % 0 mm
15:08 -13.8 °C -14.6 °C 34198.6 hPa SSW 7.6 km/h 18.2 km/h 91 % 0 mm
15:10 -13.8 °C -14.6 °C 34198.6 hPa SSW 10.3 km/h 20.8 km/h 91 % 0 mm
15:12 -13.8 °C -14.6 °C 34198.6 hPa SSW 10.3 km/h 18.2 km/h 91 % 0 mm
15:16 -13.8 °C -14.6 °C 34198.6 hPa SW 12.7 km/h 15.6 km/h 91 % 0 mm
15:18 -13.8 °C -14.6 °C 34198.6 hPa SSW 7.6 km/h 18.2 km/h 91 % 0 mm
15:20 -13.8 °C -14.6 °C 34198.6 hPa South 7.6 km/h 25.9 km/h 91 % 0 mm
15:24 -13.8 °C -14.6 °C 34198.6 hPa South 2.3 km/h 12.9 km/h 91 % 0 mm
15:26 -13.8 °C -14.6 °C 34198.6 hPa SW 20.9 km/h 20.9 km/h 91 % 0 mm
15:30 -13.8 °C -14.5 °C 34198.6 hPa SSE 7.6 km/h 15.6 km/h 92 % 0 mm
15:32 -13.8 °C -14.5 °C 34198.6 hPa SSW 10.3 km/h 10.3 km/h 92 % 0 mm
15:36 -13.8 °C -14.5 °C 34198.6 hPa SSE 5.1 km/h 20.8 km/h 92 % 0 mm
15:43 -13.9 °C -14.6 °C 34198.6 hPa SSE 5.1 km/h 15.6 km/h 92 % 7.62 mm
15:45 -13.9 °C -14.6 °C 34198.6 hPa SSW 10.3 km/h 15.6 km/h 92 % 7.62 mm
15:47 -13.9 °C -14.6 °C 34198.6 hPa SSW 2.3 km/h 10.3 km/h 92 % 7.62 mm
15:53 -13.9 °C -14.6 °C 34198.6 hPa South 2.3 km/h 15.6 km/h 92 % 7.62 mm
15:54 -13.9 °C -14.6 °C 34198.6 hPa SSE 5.1 km/h 15.6 km/h 92 % 7.62 mm
15:55 -13.9 °C -14.6 °C 34198.6 hPa South 7.6 km/h 10.3 km/h 93 % 7.62 mm
16:01 -13.9 °C -14.6 °C 34198.6 hPa SSE 2.3 km/h 15.6 km/h 93 % 7.62 mm
16:03 -13.9 °C -14.6 °C 34198.6 hPa SSE 5.1 km/h 12.9 km/h 93 % 7.62 mm
16:05 -13.9 °C -14.6 °C 34198.6 hPa SSE 2.3 km/h 18.2 km/h 93 % 7.62 mm
16:13 -13.9 °C -14.4 °C 34198.6 hPa South 2.3 km/h 7.7 km/h 94 % 12.7 mm
16:19 -14 °C -14.5 °C 34198.6 hPa South 2.3 km/h 7.7 km/h 94 % 12.7 mm
16:23 -14 °C -14.5 °C 34198.6 hPa SSE 2.3 km/h 10.3 km/h 94 % 12.7 mm
16:25 -14 °C -14.5 °C 34212.1 hPa SW 7.6 km/h 10.3 km/h 94 % 12.7 mm
16:31 -14 °C -14.5 °C 34212.1 hPa SW 2.3 km/h 7.7 km/h 94 % 20.32 mm
16:33 -14 °C -14.5 °C 34212.1 hPa SSE 5.1 km/h 15.6 km/h 94 % 20.32 mm
16:35 -14 °C -14.5 °C 34212.1 hPa SSE 5.1 km/h 10.3 km/h 94 % 20.32 mm
16:37 -14 °C -14.5 °C 34212.1 hPa SSE 5.1 km/h 15.6 km/h 94 % 25.4 mm
16:39 -14 °C -14.5 °C 34212.1 hPa SSE 7.6 km/h 12.9 km/h 94 % 20.32 mm
16:49 -14 °C -14.4 °C 34212.1 hPa SSW 7.6 km/h 12.9 km/h 95 % 33.02 mm
16:51 -14 °C -14.4 °C 34212.1 hPa SSE 7.6 km/h 15.6 km/h 95 % 38.1 mm
16:53 -14.1 °C -14.4 °C 34212.1 hPa SSW 5.1 km/h 23.3 km/h 95 % 38.1 mm
16:59 -14.1 °C -14.4 °C 34212.1 hPa SSW 7.6 km/h 12.9 km/h 95 % 38.1 mm
17:05 -14.1 °C -14.4 °C 34212.1 hPa SSE 2.3 km/h 12.9 km/h 95 % 45.72 mm
17:07 -14.1 °C -14.4 °C 34212.1 hPa South 2.3 km/h 10.3 km/h 95 % 45.72 mm
17:11 -14.1 °C -14.4 °C 34212.1 hPa SW 5.1 km/h 10.3 km/h 95 % 45.72 mm
17:12 -14.1 °C -14.4 °C 34212.1 hPa South 2.3 km/h 10.3 km/h 95 % 45.72 mm
17:13 -14.1 °C -14.4 °C 34212.1 hPa SSE 2.3 km/h 12.9 km/h 95 % 45.72 mm
17:21 -14.1 °C -14.5 °C 34212.1 hPa SE 2.3 km/h 10.3 km/h 95 % 45.72 mm
17:23 -14.1 °C -14.5 °C 34222.3 hPa SSE 7.6 km/h 10.3 km/h 95 % 45.72 mm
17:25 -14.1 °C -14.5 °C 34212.1 hPa SE 5.1 km/h 10.3 km/h 95 % 45.72 mm
17:29 -14.1 °C -14.4 °C 34222.3 hPa Calm   7.7 km/h 96 % 38.1 mm
17:39 -14.1 °C -14.4 °C 34222.3 hPa SSE 5.1 km/h 5.1 km/h 96 % 38.1 mm
17:47 -14.1 °C -14.4 °C 34222.3 hPa SSE 5.1 km/h 10.3 km/h 96 % 33.02 mm
17:48 -14.1 °C -14.4 °C 34222.3 hPa Calm   10.3 km/h 96 % 38.1 mm
17:49 -14.1 °C -14.4 °C 34222.3 hPa SSW 2.3 km/h 7.7 km/h 96 % 25.4 mm
17:53 -14.1 °C -14.4 °C 34222.3 hPa Calm   5.1 km/h 96 % 20.32 mm
17:55 -14.1 °C -14.4 °C 34222.3 hPa SSW 7.6 km/h 10.3 km/h 96 % 20.32 mm
17:59 -14.1 °C -14.4 °C 34222.3 hPa SSW 2.3 km/h 7.7 km/h 96 % 12.7 mm
18:01 -14.1 °C -14.4 °C 34222.3 hPa South 12.7 km/h 12.9 km/h 96 % 12.7 mm
18:11 -14.1 °C -14.4 °C 34222.3 hPa SSW 2.3 km/h 7.7 km/h 96 % 7.62 mm
18:12 -14.1 °C -14.4 °C 34222.3 hPa SSE 2.3 km/h 10.3 km/h 96 % 12.7 mm
18:13 -14.1 °C -14.4 °C 34222.3 hPa South 7.6 km/h 10.3 km/h 96 % 7.62 mm
18:17 -14.1 °C -14.4 °C 34222.3 hPa South 12.7 km/h 15.6 km/h 96 % 0 mm
18:27 -14.1 °C -14.4 °C 34222.3 hPa SSE 2.3 km/h 15.6 km/h 96 % 0 mm
18:49 -14.1 °C -14.4 °C 34235.8 hPa SSE 2.3 km/h 15.6 km/h 96 % 0 mm
18:55 -14.1 °C -14.4 °C 34235.8 hPa SSE 2.3 km/h 10.3 km/h 96 % 0 mm
19:07 -14.1 °C -14.4 °C 34235.8 hPa SE 5.1 km/h 10.3 km/h 96 % 7.62 mm
19:13 -14.1 °C -14.4 °C 34235.8 hPa South 5.1 km/h 10.3 km/h 96 % 7.62 mm
19:19 -14.1 °C -14.4 °C 34235.8 hPa South 5.1 km/h 7.7 km/h 96 % 7.62 mm
19:27 -14.1 °C -14.4 °C 34235.8 hPa South 2.3 km/h 10.3 km/h 96 % 7.62 mm
19:33 -14.1 °C -14.4 °C 34222.3 hPa South 2.3 km/h 5.1 km/h 96 % 7.62 mm
Meteo18
Compliments of Weather Underground - 4 mb

Script developed by  Jim McMurry - jmcmurry@mwt.net Adapted for the template by  Wim van der Kuil - Leuven-Template.eu

You find our weather info also at:

European Weather Network

Weather Underground

Equipment we use:

Weather-station
Davis Vue

Weather-program
Meteobridge

Weather-server
Raspberry PI 2 B+

Provider
1 and 1

Davis Vue

Meteobridge

Raspberry PI 2 B+

1 and 1